ADDS METAR Data INFO
IDs: Format: Raw Decoded Include TAF

Data at: 0255 UTC 21 Jan 2018

KFPK 210235Z AUTO 21004KT 10SM CLR 00/M02 A3001 RMK AO2 T00011020
KFPK 210215Z AUTO 20004KT 10SM CLR 01/M02 A3001 RMK AO2 T00051019
KFPK 210155Z AUTO 21003KT 10SM CLR 01/M02 A3000 RMK AO2 T00051020
KFPK 210135Z AUTO 20005KT 10SM CLR 00/M02 A2999 RMK AO2 T00021020
KFPK 210115Z AUTO 20005KT 10SM CLR 01/M02 A2999 RMK AO2 T00091020
KFPK 210055Z AUTO 21004KT 10SM CLR 01/M02 A3000 RMK AO2 T00111019
KFPK 210035Z AUTO 20005KT 10SM CLR 02/M02 A2999 RMK AO2 T00161016
KFPK 210015Z AUTO 20005KT 10SM CLR 02/M02 A2999 RMK AO2 T00171016
KFPK 202355Z AUTO 20006KT 10SM CLR 02/M01 A2999 RMK AO2 T00201015 10060 20020
KFPK 202335Z AUTO 21004KT 10SM CLR 02/M01 A2999 RMK AO2 T00231015
KFPK 202315Z AUTO 21004KT 10SM CLR 03/M01 A2998 RMK AO2 T00251015
KFPK 202255Z AUTO 20004KT 10SM CLR 03/M01 A2996 RMK AO2 T00261012
KFPK 202235Z AUTO 19005KT 10SM CLR 03/M01 A2996 RMK AO2 T00301012
KFPK 202215Z AUTO 18004KT 10SM CLR 04/M01 A2994 RMK AO2 T00351010
KFPK 202155Z AUTO 17004KT 10SM CLR 05/M01 A2993 RMK AO2 T00451006
KFPK 202135Z AUTO 18006KT 10SM CLR 05/M01 A2993 RMK AO2 T00491007
KFPK 202115Z AUTO 22004KT 10SM CLR 06/M01 A2993 RMK AO2 T00591009
KFPK 202055Z AUTO 22008KT 10SM CLR 06/M01 A2992 RMK AO2 T00601008
KFPK 202035Z AUTO 21003KT 10SM CLR 06/M01 A2991 RMK AO2 T00591009
KFPK 202015Z AUTO 21006KT 10SM CLR 06/M01 A2990 RMK AO2 T00601009
KFPK 201955Z AUTO 21007KT 10SM CLR 06/M01 A2990 RMK AO2 T00581011
KFPK 201935Z AUTO 21008KT 10SM CLR 06/M01 A2990 RMK AO2 T00591012
KFPK 201915Z AUTO 21006KT 10SM CLR 05/M01 A2990 RMK AO2 T00541013
KFPK 201855Z AUTO 22006KT 10SM CLR 05/M01 A2990 RMK AO2 T00531013
KFPK 201835Z AUTO 21006KT 10SM CLR 05/M02 A2990 RMK AO2 T00481017
KFPK 201815Z AUTO 21007KT 10SM CLR 05/M02 A2990 RMK AO2 T00491016
KFPK 201755Z AUTO 22005KT 10SM CLR 05/M02 A2990 RMK AO2 T00461017 10046 20003
KFPK 201735Z AUTO 22005KT 10SM CLR 04/M02 A2990 RMK AO2 T00411018
KFPK 201716Z AUTO 22007KT 10SM CLR 04/M02 A2990 RMK AO2 T00401020
KFPK 201655Z AUTO 22008KT 10SM CLR 04/M02 A2991 RMK AO2 T00351022
KFPK 201635Z AUTO 22008KT 10SM CLR 03/M02 A2991 RMK AO2 T00301024
KFPK 201616Z AUTO 22008KT 10SM CLR 03/M02 A2991 RMK AO2 T00261025
KFPK 201555Z AUTO 23009KT 10SM CLR 02/M03 A2991 RMK AO2 T00211027
KFPK 201535Z AUTO 22007KT 10SM CLR 02/M03 A2990 RMK AO2 T00201027
KFPK 201515Z AUTO 22007KT 10SM CLR 02/M03 A2990 RMK AO2 T00171030
KFPK 201455Z AUTO 21008KT 10SM CLR 01/M03 A2989 RMK AO2 T00141030
KFPK 201435Z AUTO 22006KT 10SM CLR 01/M03 A2989 RMK AO2 T00121032
KFPK 201415Z AUTO 22006KT 10SM CLR 01/M03 A2988 RMK AO2 T00101034
KFPK 201355Z AUTO 22006KT 10SM CLR 01/M03 A2987 RMK AO2 T00061035
KFPK 201335Z AUTO 20006KT 10SM CLR 01/M03 A2985 RMK AO2 T00051035
KFPK 201315Z AUTO 23007KT 10SM CLR 01/M03 A2984 RMK AO2 T00061035
KFPK 201255Z AUTO 23007KT 10SM CLR 01/M03 A2984 RMK AO2 T00101035
KFPK 201235Z AUTO 22007KT 10SM CLR 01/M03 A2983 RMK AO2 T00111035
KFPK 201215Z AUTO 24007KT 10SM CLR 01/M03 A2983 RMK AO2 T00131035
KFPK 201155Z AUTO 23008KT 10SM CLR 01/M03 A2982 RMK AO2 T00141035 10026 20012
KFPK 201135Z AUTO 22007KT 10SM CLR 01/M04 A2981 RMK AO2 T00121036
KFPK 201115Z AUTO 23006KT 10SM CLR 02/M03 A2981 RMK AO2 T00161035
KFPK 201055Z AUTO 23007KT 10SM CLR 02/M04 A2980 RMK AO2 T00181036
KFPK 201035Z AUTO 23006KT 10SM CLR 02/M04 A2979 RMK AO2 T00181036
KFPK 201015Z AUTO 23009KT 10SM CLR 02/M04 A2978 RMK AO2 T00211036
KFPK 200955Z AUTO 23007KT 10SM CLR 02/M04 A2978 RMK AO2 T00211036
KFPK 200935Z AUTO 24008G14KT 10SM CLR 03/M03 A2977 RMK AO2 T00251035
KFPK 200915Z AUTO 23009G15KT 10SM CLR 03/M04 A2976 RMK AO2 T00251036
KFPK 200855Z AUTO 23010G15KT 10SM CLR 02/M04 A2976 RMK AO2 T00231037
KFPK 200835Z AUTO 23006KT 10SM CLR 02/M04 A2976 RMK AO2 T00171040
KFPK 200815Z AUTO 23007KT 10SM CLR 02/M04 A2975 RMK AO2 T00151042
KFPK 200755Z AUTO 23008KT 10SM CLR 01/M04 A2975 RMK AO2 T00141042
KFPK 200735Z AUTO 23011KT 10SM CLR 02/M04 A2974 RMK AO2 T00151042
KFPK 200715Z AUTO 23011G18KT 10SM CLR 02/M04 A2973 RMK AO2 T00151042
KFPK 200655Z AUTO 22013G16KT 10SM CLR 02/M04 A2972 RMK AO2 T00161042
KFPK 200635Z AUTO 23013G19KT 10SM CLR 02/M04 A2972 RMK AO2 T00181042
KFPK 200615Z AUTO 23012G19KT 10SM CLR 02/M04 A2972 RMK AO2 T00171042
KFPK 200555Z AUTO 22013G19KT 10SM CLR 02/M04 A2972 RMK AO2 T00171043 10023 20008 400231048
KFPK 200535Z AUTO 22013G19KT 10SM CLR 02/M04 A2973 RMK AO2 T00151043
KFPK 200515Z AUTO 23011G17KT 10SM CLR 02/M04 A2972 RMK AO2 T00161042
KFPK 200455Z AUTO 22014G19KT 10SM CLR 02/M04 A2973 RMK AO2 T00171043
KFPK 200435Z AUTO 23014G21KT 10SM CLR 02/M04 A2973 RMK AO2 T00201043
KFPK 200415Z AUTO 23014G20KT 10SM CLR 02/M04 A2973 RMK AO2 T00201043
KFPK 200355Z AUTO 22013G21KT 10SM CLR 02/M04 A2972 RMK AO2 T00201044
KFPK 200335Z AUTO 23019G23KT 10SM CLR 02/M04 A2971 RMK AO2 T00211045
KFPK 200315Z AUTO 23012G21KT 10SM CLR 02/M05 A2971 RMK AO2 T00201046
KFPK 200255Z AUTO 22014G20KT 10SM CLR 02/M05 A2970 RMK AO2 T00201047
KFPK 200235Z AUTO 22015G22KT 10SM CLR 02/M05 A2970 RMK AO2 T00201047
KFPK 200215Z AUTO 21018G24KT 10SM CLR 02/M05 A2969 RMK AO2 T00171049
KFPK 200155Z AUTO 21015G21KT 10SM CLR 02/M05 A2970 RMK AO2 T00151050
KFPK 200135Z AUTO 22012G19KT 10SM CLR 02/M05 A2972 RMK AO2 T00151049
KFPK 200115Z AUTO 21014G21KT 10SM CLR 02/M05 A2971 RMK AO2 T00151050
KFPK 200055Z AUTO 21013G19KT 10SM CLR 01/M05 A2972 RMK AO2 T00131051
KFPK 200035Z AUTO 20014G21KT 10SM CLR 01/M05 A2972 RMK AO2 T00121052
KFPK 200015Z AUTO 22013G19KT 10SM CLR 01/M06 A2972 RMK AO2 T00101056
KFPK 192355Z AUTO 21012G21KT 10SM CLR 01/M06 A2972 RMK AO2 T00071056 10023 20005
KFPK 192335Z AUTO 21012G19KT 10SM CLR 01/M06 A2973 RMK AO2 T00071057
KFPK 192315Z AUTO 21014G17KT 10SM CLR 01/M06 A2973 RMK AO2 T00071059
KFPK 192255Z AUTO 21015G18KT 10SM CLR 01/M06 A2973 RMK AO2 T00061059
KFPK 192235Z AUTO 20012G18KT 10SM CLR 01/M06 A2974 RMK AO2 T00061058
KFPK 192215Z AUTO 20011G18KT 10SM CLR 01/M06 A2976 RMK AO2 T00081059
KFPK 192155Z AUTO 20011KT 10SM CLR 01/M06 A2976 RMK AO2 T00081059
KFPK 192135Z AUTO 19012KT 10SM CLR 01/M05 A2977 RMK AO2 T00071055
KFPK 192115Z AUTO 19012KT 10SM CLR 01/M06 A2977 RMK AO2 T00111056
KFPK 192055Z AUTO 20011G16KT 10SM CLR 02/M06 A2977 RMK AO2 T00151059
KFPK 192035Z AUTO 19010KT 10SM CLR 02/M05 A2978 RMK AO2 T00181055
KFPK 192015Z AUTO 20010KT 10SM CLR 02/M06 A2977 RMK AO2 T00201057
KFPK 191955Z AUTO 21011KT 10SM CLR 02/M06 A2978 RMK AO2 T00201060
KFPK 191935Z AUTO 20013G19KT 10SM CLR 02/M06 A2978 RMK AO2 T00221059
KFPK 191915Z AUTO 20012KT 10SM CLR 02/M06 A2978 RMK AO2 T00201061
KFPK 191855Z AUTO 20011G15KT 10SM CLR 02/M06 A2980 RMK AO2 T00201059
KFPK 191835Z AUTO 21009KT 10SM CLR 02/M06 A2981 RMK AO2 T00181061
KFPK 191815Z AUTO 21010G16KT 10SM CLR 02/M06 A2981 RMK AO2 T00151061
KFPK 191755Z AUTO 21010KT 10SM CLR 02/M06 A2983 RMK AO2 T00151061 10015 21043
KFPK 191735Z AUTO 22011G17KT 10SM CLR 01/M06 A2984 RMK AO2 T00101065
KFPK 191715Z AUTO 23015G19KT 10SM CLR 01/M07 A2984 RMK AO2 T00061067
KFPK 191655Z AUTO 23014G18KT 10SM CLR 01/M07 A2986 RMK AO2 T00051066
KFPK 191635Z AUTO 22012G16KT 10SM CLR 00/M07 A2986 RMK AO2 T00001070
KFPK 191615Z AUTO 22011G17KT 10SM CLR 00/M07 A2988 RMK AO2 T10021071
KFPK 191555Z AUTO 21009G17KT 10SM CLR M01/M07 A2988 RMK AO2 T10071072
KFPK 191535Z AUTO 22013G17KT 10SM CLR M01/M07 A2989 RMK AO2 T10111075
KFPK 191515Z AUTO 23010KT 10SM CLR M01/M08 A2987 RMK AO2 T10151077